createdAt,value
2018-08-20T00:00:11.460Z,1003.57
2018-08-20T00:01:11.457Z,1003.52
2018-08-20T00:02:11.453Z,1003.54
2018-08-20T00:03:11.449Z,1003.59
2018-08-20T00:04:11.446Z,1003.56
2018-08-20T00:05:11.442Z,1003.57
2018-08-20T00:06:11.440Z,1003.60
2018-08-20T00:07:11.435Z,1003.54
2018-08-20T00:08:11.432Z,1003.55
2018-08-20T00:09:11.429Z,1003.54
2018-08-20T00:10:11.425Z,1003.52
2018-08-20T00:11:11.421Z,1003.53
2018-08-20T00:12:11.419Z,1003.51
2018-08-20T00:13:11.415Z,1003.54
2018-08-20T00:14:11.411Z,1003.54
2018-08-20T00:15:11.407Z,1003.50
2018-08-20T00:16:11.404Z,1003.51
2018-08-20T00:17:11.404Z,1003.49
2018-08-20T00:18:11.397Z,1003.51
2018-08-20T00:19:11.392Z,1003.57
2018-08-20T00:20:11.389Z,1003.54
2018-08-20T00:21:11.387Z,1003.53
2018-08-20T00:22:11.382Z,1003.61
2018-08-20T00:23:11.378Z,1003.55
2018-08-20T00:24:11.375Z,1003.53
2018-08-20T00:25:11.371Z,1003.53
2018-08-20T00:26:11.368Z,1003.55
2018-08-20T00:27:11.364Z,1003.54
2018-08-20T00:28:11.360Z,1003.51
2018-08-20T00:29:11.357Z,1003.52
2018-08-20T00:30:11.353Z,1003.56
2018-08-20T00:31:11.349Z,1003.53
2018-08-20T00:32:11.346Z,1003.56
2018-08-20T00:33:11.342Z,1003.53
2018-08-20T00:34:11.343Z,1003.55
2018-08-20T00:35:11.335Z,1003.53
2018-08-20T00:36:11.331Z,1003.55
2018-08-20T00:37:11.328Z,1003.55
2018-08-20T00:38:11.324Z,1003.56
2018-08-20T00:39:11.320Z,1003.60
2018-08-20T00:40:11.317Z,1003.58
2018-08-20T00:41:11.313Z,1003.57
2018-08-20T00:42:11.313Z,1003.63
2018-08-20T00:43:11.306Z,1003.57
2018-08-20T00:44:11.301Z,1003.55
2018-08-20T00:45:11.299Z,1003.57
2018-08-20T00:46:11.295Z,1003.60
2018-08-20T00:47:11.291Z,1003.57
2018-08-20T00:48:11.287Z,1003.58
2018-08-20T00:49:11.284Z,1003.58
2018-08-20T00:50:11.282Z,1003.61
2018-08-20T00:51:11.276Z,1003.62
2018-08-20T00:52:11.330Z,1003.59
2018-08-20T00:53:11.269Z,1003.62
2018-08-20T00:54:11.265Z,1003.56
2018-08-20T00:55:11.261Z,1003.57
2018-08-20T00:56:11.260Z,1003.55
2018-08-20T00:57:11.254Z,1003.55
2018-08-20T00:58:11.251Z,1003.57
2018-08-20T00:59:11.246Z,1003.56
2018-08-20T01:00:11.243Z,1003.56
2018-08-20T01:01:11.241Z,1003.60
2018-08-20T01:02:11.235Z,1003.56
2018-08-20T01:03:11.231Z,1003.55
2018-08-20T01:04:11.228Z,1003.59
2018-08-20T01:05:11.224Z,1003.52
2018-08-20T01:06:11.220Z,1003.50
2018-08-20T01:07:11.216Z,1003.50
2018-08-20T01:08:11.215Z,1003.50
2018-08-20T01:09:11.209Z,1003.52
2018-08-20T01:10:11.205Z,1003.52
2018-08-20T01:11:11.200Z,1003.50
2018-08-20T01:12:11.197Z,1003.48
2018-08-20T01:13:11.194Z,1003.47
2018-08-20T01:14:11.190Z,1003.48
2018-08-20T01:15:11.185Z,1003.46
2018-08-20T01:16:11.182Z,1003.49
2018-08-20T01:17:11.179Z,1003.45
2018-08-20T01:18:11.175Z,1003.46
2018-08-20T01:19:11.171Z,1003.44
2018-08-20T01:20:11.167Z,1003.45
2018-08-20T01:21:11.163Z,1003.44
2018-08-20T01:22:11.160Z,1003.46
2018-08-20T01:23:11.155Z,1003.48
2018-08-20T01:24:11.152Z,1003.48
2018-08-20T01:25:11.148Z,1003.47
2018-08-20T01:26:11.145Z,1003.50
2018-08-20T01:27:11.141Z,1003.49
2018-08-20T01:28:11.140Z,1003.46
2018-08-20T01:29:11.133Z,1003.46
2018-08-20T01:30:11.131Z,1003.40
2018-08-20T01:31:11.126Z,1003.40
2018-08-20T01:32:11.122Z,1003.36
2018-08-20T01:33:11.119Z,1003.41
2018-08-20T01:34:11.115Z,1003.39
2018-08-20T01:35:11.111Z,1003.37
2018-08-20T01:36:11.107Z,1003.34
2018-08-20T01:37:11.104Z,1003.38
2018-08-20T01:38:11.101Z,1003.35
2018-08-20T01:39:11.096Z,1003.34
2018-08-20T01:40:11.092Z,1003.34
2018-08-20T01:41:11.089Z,1003.33
2018-08-20T01:42:11.085Z,1003.32
2018-08-20T01:43:11.081Z,1003.34
2018-08-20T01:44:11.077Z,1003.33
2018-08-20T01:45:11.073Z,1003.34
2018-08-20T01:46:11.069Z,1003.33
2018-08-20T01:47:11.064Z,1003.37
2018-08-20T01:48:11.062Z,1003.34
2018-08-20T01:49:11.057Z,1003.37
2018-08-20T01:50:11.053Z,1003.33
2018-08-20T01:51:11.048Z,1003.35
2018-08-20T01:52:11.045Z,1003.36
2018-08-20T01:53:11.041Z,1003.36
2018-08-20T01:54:11.037Z,1003.40
2018-08-20T01:55:11.031Z,1003.41
2018-08-20T01:56:11.028Z,1003.41
2018-08-20T01:57:11.026Z,1003.43
2018-08-20T01:58:11.021Z,1003.43
2018-08-20T01:59:11.016Z,1003.41
2018-08-20T02:00:11.012Z,1003.44
2018-08-20T02:01:11.010Z,1003.44
2018-08-20T02:02:11.004Z,1003.44
2018-08-20T02:03:11.003Z,1003.45
2018-08-20T02:04:10.996Z,1003.43
2018-08-20T02:05:10.992Z,1003.42
2018-08-20T02:06:10.990Z,1003.43
2018-08-20T02:07:10.983Z,1003.42
2018-08-20T02:08:10.979Z,1003.41
2018-08-20T02:09:10.979Z,1003.41
2018-08-20T02:10:10.972Z,1003.40
2018-08-20T02:11:10.967Z,1003.33
2018-08-20T02:12:10.964Z,1003.35
2018-08-20T02:13:10.960Z,1003.33
2018-08-20T02:14:10.956Z,1003.30
2018-08-20T02:15:10.951Z,1003.29
2018-08-20T02:16:10.950Z,1003.29
2018-08-20T02:17:10.944Z,1003.31
2018-08-20T02:18:10.940Z,1003.27
2018-08-20T02:19:10.936Z,1003.26
2018-08-20T02:20:10.933Z,1003.21
2018-08-20T02:21:10.928Z,1003.24
2018-08-20T02:22:10.924Z,1003.22
2018-08-20T02:23:10.920Z,1003.23
2018-08-20T02:24:10.916Z,1003.24
2018-08-20T02:25:10.912Z,1003.19
2018-08-20T02:26:10.909Z,1003.22
2018-08-20T02:27:10.904Z,1003.17
2018-08-20T02:28:10.899Z,1003.19
2018-08-20T02:29:10.896Z,1003.20
2018-08-20T02:30:10.892Z,1003.19
2018-08-20T02:31:10.888Z,1003.22
2018-08-20T02:32:10.884Z,1003.21
2018-08-20T02:33:10.880Z,1003.14
2018-08-20T02:34:10.876Z,1003.17
2018-08-20T02:35:10.871Z,1003.15
2018-08-20T02:36:10.867Z,1003.15
2018-08-20T02:37:10.864Z,1003.14
2018-08-20T02:38:10.860Z,1003.12
2018-08-20T02:39:10.855Z,1003.13
2018-08-20T02:40:10.853Z,1003.08
2018-08-20T02:41:10.848Z,1003.09
2018-08-20T02:42:10.844Z,1003.12
2018-08-20T02:43:10.839Z,1003.06
2018-08-20T02:44:10.835Z,1003.08
2018-08-20T02:45:10.833Z,1003.07
2018-08-20T02:46:10.827Z,1003.11
2018-08-20T02:47:10.822Z,1003.11
2018-08-20T02:48:10.821Z,1003.09
2018-08-20T02:49:10.814Z,1003.06
2018-08-20T02:50:10.812Z,1003.07
2018-08-20T02:51:10.805Z,1003.06
2018-08-20T02:52:10.801Z,1003.10
2018-08-20T02:53:10.797Z,1003.05
2018-08-20T02:54:10.793Z,1003.07
2018-08-20T02:55:10.789Z,1003.07
2018-08-20T02:56:10.785Z,1003.09
2018-08-20T02:57:10.780Z,1003.10
2018-08-20T02:58:10.778Z,1003.10
2018-08-20T02:59:10.779Z,1003.07
2018-08-20T03:00:10.767Z,1003.11
2018-08-20T03:01:10.763Z,1003.11
2018-08-20T03:02:10.877Z,1003.14
2018-08-20T03:03:10.754Z,1003.08
2018-08-20T03:04:10.750Z,1003.08
2018-08-20T03:05:10.746Z,1003.08
2018-08-20T03:06:10.743Z,1003.04
2018-08-20T03:07:10.743Z,1003.04
2018-08-20T03:08:10.733Z,1003.00
2018-08-20T03:09:10.729Z,1003.04
2018-08-20T03:10:10.725Z,1003.01
2018-08-20T03:11:10.720Z,1003.02
2018-08-20T03:12:10.716Z,1003.03
2018-08-20T03:13:10.711Z,1003.03
2018-08-20T03:14:10.708Z,1003.08
2018-08-20T03:15:10.702Z,1003.06
2018-08-20T03:16:10.724Z,1003.06
2018-08-20T03:17:10.694Z,1003.09
2018-08-20T03:18:10.691Z,1003.10
2018-08-20T03:19:10.689Z,1003.09
2018-08-20T03:20:10.682Z,1003.10
2018-08-20T03:21:10.680Z,1003.14
2018-08-20T03:22:10.673Z,1003.14
2018-08-20T03:23:10.667Z,1003.18
2018-08-20T03:24:10.663Z,1003.19
2018-08-20T03:25:10.659Z,1003.17
2018-08-20T03:26:10.654Z,1003.15
2018-08-20T03:27:10.649Z,1003.11
2018-08-20T03:28:10.646Z,1003.11
2018-08-20T03:29:10.643Z,1003.11
2018-08-20T03:30:10.640Z,1003.13
2018-08-20T03:31:10.631Z,1003.09
2018-08-20T03:32:10.628Z,1003.11
2018-08-20T03:33:10.623Z,1003.12
2018-08-20T03:34:10.620Z,1003.08
2018-08-20T03:35:10.614Z,1003.12
2018-08-20T03:36:10.621Z,1003.09
2018-08-20T03:37:10.606Z,1003.08
2018-08-20T03:38:10.601Z,1003.09
2018-08-20T03:39:10.596Z,1003.10
2018-08-20T03:40:10.592Z,1003.06
2018-08-20T03:41:10.588Z,1003.07
2018-08-20T03:42:10.583Z,1003.05
2018-08-20T03:43:10.578Z,1003.11
2018-08-20T03:44:10.573Z,1003.12
2018-08-20T03:45:10.570Z,1003.12
2018-08-20T03:46:10.567Z,1003.16
2018-08-20T03:47:10.560Z,1003.17
2018-08-20T03:48:10.556Z,1003.19
2018-08-20T03:49:10.552Z,1003.21
2018-08-20T03:50:10.549Z,1003.25
2018-08-20T03:51:10.544Z,1003.22
2018-08-20T03:52:10.539Z,1003.27
2018-08-20T03:53:10.534Z,1003.27
2018-08-20T03:54:10.531Z,1003.29
2018-08-20T03:55:10.525Z,1003.29
2018-08-20T03:56:10.521Z,1003.28
2018-08-20T03:57:10.517Z,1003.34
2018-08-20T03:58:10.513Z,1003.32
2018-08-20T03:59:10.507Z,1003.32
2018-08-20T04:00:10.503Z,1003.36
2018-08-20T04:01:10.500Z,1003.37
2018-08-20T04:02:10.496Z,1003.38
2018-08-20T04:03:10.491Z,1003.41
2018-08-20T04:04:10.487Z,1003.43
2018-08-20T04:05:10.483Z,1003.41
2018-08-20T04:06:10.479Z,1003.39
2018-08-20T04:07:10.474Z,1003.36
2018-08-20T04:08:10.470Z,1003.33
2018-08-20T04:09:10.466Z,1003.35
2018-08-20T04:10:10.465Z,1003.33
2018-08-20T04:11:10.457Z,1003.30
2018-08-20T04:12:10.453Z,1003.34
2018-08-20T04:13:10.449Z,1003.28
2018-08-20T04:14:10.445Z,1003.27
2018-08-20T04:15:10.440Z,1003.30
2018-08-20T04:16:10.436Z,1003.29
2018-08-20T04:17:10.432Z,1003.25
2018-08-20T04:18:10.429Z,1003.24
2018-08-20T04:19:10.424Z,1003.22
2018-08-20T04:20:10.419Z,1003.24
2018-08-20T04:21:10.415Z,1003.27
2018-08-20T04:22:10.411Z,1003.23
2018-08-20T04:23:10.407Z,1003.28
2018-08-20T04:24:10.403Z,1003.32
2018-08-20T04:25:10.407Z,1003.27
2018-08-20T04:26:10.395Z,1003.28
2018-08-20T04:27:10.390Z,1003.27
2018-08-20T04:28:10.385Z,1003.25
2018-08-20T04:29:10.385Z,1003.23
2018-08-20T04:30:10.377Z,1003.21
2018-08-20T04:31:10.373Z,1003.21
2018-08-20T04:32:10.372Z,1003.21
2018-08-20T04:33:10.365Z,1003.26
2018-08-20T04:34:10.364Z,1003.23
2018-08-20T04:35:10.356Z,1003.26
2018-08-20T04:36:10.353Z,1003.22
2018-08-20T04:37:10.349Z,1003.19
2018-08-20T04:38:10.345Z,1003.23
2018-08-20T04:39:10.340Z,1003.20
2018-08-20T04:40:10.336Z,1003.19
2018-08-20T04:41:10.332Z,1003.19
2018-08-20T04:42:10.363Z,1003.19
2018-08-20T04:43:10.324Z,1003.21
2018-08-20T04:44:10.319Z,1003.24
2018-08-20T04:45:10.317Z,1003.22
2018-08-20T04:46:10.311Z,1003.21
2018-08-20T04:47:10.314Z,1003.27
2018-08-20T04:48:10.305Z,1003.26
2018-08-20T04:49:10.299Z,1003.29
2018-08-20T04:50:10.533Z,1003.22
2018-08-20T04:51:10.530Z,1003.31
2018-08-20T04:52:10.286Z,1003.25
2018-08-20T04:53:10.282Z,1003.24
2018-08-20T04:54:10.279Z,1003.21
2018-08-20T04:55:10.273Z,1003.21
2018-08-20T04:56:10.269Z,1003.21
2018-08-20T04:57:10.265Z,1003.26
2018-08-20T04:58:10.261Z,1003.20
2018-08-20T04:59:10.256Z,1003.24
2018-08-20T05:00:10.254Z,1003.23
2018-08-20T05:01:10.249Z,1003.26
2018-08-20T05:02:10.245Z,1003.18
2018-08-20T05:03:10.240Z,1003.21
2018-08-20T05:04:10.236Z,1003.21
2018-08-20T05:05:10.232Z,1003.18
2018-08-20T05:06:10.228Z,1003.18
2018-08-20T05:07:10.224Z,1003.25
2018-08-20T05:08:10.219Z,1003.21
2018-08-20T05:09:10.215Z,1003.23
2018-08-20T05:10:10.358Z,1003.19
2018-08-20T05:11:10.207Z,1003.19
2018-08-20T05:12:10.203Z,1003.20
2018-08-20T05:13:10.199Z,1003.17
2018-08-20T05:14:10.195Z,1003.21
2018-08-20T05:15:10.190Z,1003.22
2018-08-20T05:16:10.186Z,1003.23
2018-08-20T05:17:10.188Z,1003.26
2018-08-20T05:18:10.181Z,1003.29
2018-08-20T05:19:10.174Z,1003.26
2018-08-20T05:20:10.173Z,1003.29
2018-08-20T05:21:10.169Z,1003.30
2018-08-20T05:22:10.162Z,1003.31
2018-08-20T05:23:10.157Z,1003.29
2018-08-20T05:24:10.153Z,1003.30
2018-08-20T05:25:10.149Z,1003.32
2018-08-20T05:26:10.147Z,1003.32
2018-08-20T05:27:10.141Z,1003.33
2018-08-20T05:28:10.136Z,1003.37
2018-08-20T05:29:10.132Z,1003.38
2018-08-20T05:30:10.129Z,1003.34
2018-08-20T05:31:10.124Z,1003.42
2018-08-20T05:32:10.120Z,1003.40
2018-08-20T05:33:10.116Z,1003.42
2018-08-20T05:34:10.112Z,1003.40
2018-08-20T05:35:10.107Z,1003.39
2018-08-20T05:36:10.106Z,1003.37
2018-08-20T05:37:10.100Z,1003.38
2018-08-20T05:38:10.096Z,1003.37
2018-08-20T05:39:10.091Z,1003.37
2018-08-20T05:40:10.089Z,1003.35
2018-08-20T05:41:10.084Z,1003.35
2018-08-20T05:42:10.081Z,1003.35
2018-08-20T05:43:10.075Z,1003.38
2018-08-20T05:44:10.079Z,1003.40
2018-08-20T05:45:10.068Z,1003.38
2018-08-20T05:46:10.064Z,1003.42
2018-08-20T05:47:10.059Z,1003.41
2018-08-20T05:48:10.055Z,1003.43
2018-08-20T05:49:10.054Z,1003.43
2018-08-20T05:50:10.049Z,1003.45
2018-08-20T05:51:10.044Z,1003.42
2018-08-20T05:52:10.040Z,1003.48
2018-08-20T05:53:10.036Z,1003.49
2018-08-20T05:54:10.035Z,1003.47
2018-08-20T05:55:10.027Z,1003.53
2018-08-20T05:56:10.024Z,1003.57
2018-08-20T05:57:10.020Z,1003.59
2018-08-20T05:58:10.017Z,1003.59
2018-08-20T05:59:10.040Z,1003.59
2018-08-20T06:00:10.010Z,1003.59
2018-08-20T06:01:10.005Z,1003.61
2018-08-20T06:02:10.001Z,1003.62
2018-08-20T06:03:10.023Z,1003.65
2018-08-20T06:04:09.992Z,1003.64
2018-08-20T06:05:09.988Z,1003.66
2018-08-20T06:06:09.986Z,1003.65
2018-08-20T06:07:09.980Z,1003.63
2018-08-20T06:08:09.976Z,1003.63
2018-08-20T06:09:09.972Z,1003.65
2018-08-20T06:10:09.969Z,1003.63
2018-08-20T06:11:09.964Z,1003.61
2018-08-20T06:12:09.961Z,1003.61
2018-08-20T06:13:09.957Z,1003.59
2018-08-20T06:14:09.955Z,1003.63
2018-08-20T06:15:09.999Z,1003.61
2018-08-20T06:16:09.949Z,1003.67
2018-08-20T06:17:09.945Z,1003.67
2018-08-20T06:18:09.942Z,1003.67
2018-08-20T06:19:09.934Z,1003.69
2018-08-20T06:20:09.930Z,1003.70
2018-08-20T06:21:09.926Z,1003.70
2018-08-20T06:22:09.923Z,1003.71
2018-08-20T06:23:09.918Z,1003.73
2018-08-20T06:24:09.914Z,1003.70
2018-08-20T06:25:10.003Z,1003.76
2018-08-20T06:26:09.907Z,1003.81
2018-08-20T06:27:09.903Z,1003.80
2018-08-20T06:28:09.899Z,1003.83
2018-08-20T06:29:09.895Z,1003.84
2018-08-20T06:30:09.892Z,1003.88
2018-08-20T06:31:09.889Z,1003.87
2018-08-20T06:32:09.884Z,1003.88
2018-08-20T06:33:09.879Z,1003.87
2018-08-20T06:34:09.875Z,1003.89
2018-08-20T06:35:09.873Z,1003.85
2018-08-20T06:36:09.867Z,1003.86
2018-08-20T06:37:09.863Z,1003.87
2018-08-20T06:38:09.860Z,1003.88
2018-08-20T06:39:09.855Z,1003.87
2018-08-20T06:40:09.852Z,1003.90
2018-08-20T06:41:09.853Z,1003.91
2018-08-20T06:42:09.843Z,1003.94
2018-08-20T06:43:09.839Z,1003.85
2018-08-20T06:44:09.836Z,1003.88
2018-08-20T06:45:09.832Z,1003.88
2018-08-20T06:46:09.828Z,1003.89
2018-08-20T06:47:09.824Z,1003.92
2018-08-20T06:48:09.820Z,1003.94
2018-08-20T06:49:09.821Z,1003.99
2018-08-20T06:50:09.813Z,1004.03
2018-08-20T06:51:09.812Z,1003.98
2018-08-20T06:52:09.808Z,1003.99
2018-08-20T06:53:09.801Z,1003.97
2018-08-20T06:54:09.802Z,1004.02
2018-08-20T06:55:09.793Z,1004.02
2018-08-20T06:56:09.789Z,1003.97
2018-08-20T06:57:09.786Z,1004.07
2018-08-20T06:58:09.782Z,1004.07
2018-08-20T06:59:09.778Z,1004.06
2018-08-20T07:00:09.774Z,1004.05
2018-08-20T07:01:09.770Z,1004.04
2018-08-20T07:02:09.767Z,1004.07
2018-08-20T07:03:09.765Z,1004.10
2018-08-20T07:04:09.759Z,1004.10
2018-08-20T07:05:09.754Z,1004.12
2018-08-20T07:06:09.751Z,1004.15
2018-08-20T07:07:09.747Z,1004.15
2018-08-20T07:08:09.743Z,1004.16
2018-08-20T07:09:09.739Z,1004.18
2018-08-20T07:10:09.736Z,1004.19
2018-08-20T07:11:09.731Z,1004.21
2018-08-20T07:12:09.728Z,1004.24
2018-08-20T07:13:09.727Z,1004.21
2018-08-20T07:14:09.721Z,1004.25
2018-08-20T07:15:09.716Z,1004.21
2018-08-20T07:16:09.713Z,1004.19
2018-08-20T07:17:09.709Z,1004.24
2018-08-20T07:18:09.705Z,1004.24
2018-08-20T07:19:09.703Z,1004.28
2018-08-20T07:20:09.697Z,1004.29
2018-08-20T07:21:09.693Z,1004.30
2018-08-20T07:22:09.689Z,1004.27
2018-08-20T07:23:09.685Z,1004.26
2018-08-20T07:24:09.686Z,1004.30
2018-08-20T07:25:09.677Z,1004.31
2018-08-20T07:26:09.674Z,1004.31
2018-08-20T07:27:09.671Z,1004.31
2018-08-20T07:28:09.665Z,1004.31
2018-08-20T07:29:09.662Z,1004.33
2018-08-20T07:30:09.658Z,1004.36
2018-08-20T07:31:09.653Z,1004.37
2018-08-20T07:32:09.653Z,1004.36
2018-08-20T07:33:09.651Z,1004.38
2018-08-20T07:34:09.642Z,1004.40
2018-08-20T07:35:09.638Z,1004.38
2018-08-20T07:36:09.634Z,1004.40
2018-08-20T07:37:09.630Z,1004.35
2018-08-20T07:38:09.626Z,1004.38
2018-08-20T07:39:09.622Z,1004.45
2018-08-20T07:40:09.618Z,1004.39
2018-08-20T07:41:09.615Z,1004.42
2018-08-20T07:42:09.613Z,1004.47
2018-08-20T07:43:09.606Z,1004.42
2018-08-20T07:44:09.603Z,1004.44
2018-08-20T07:45:09.599Z,1004.42
2018-08-20T07:46:09.596Z,1004.43
2018-08-20T07:47:09.590Z,1004.41
2018-08-20T07:48:09.591Z,1004.46
2018-08-20T07:49:09.583Z,1004.41
2018-08-20T07:50:09.578Z,1004.41
2018-08-20T07:51:09.575Z,1004.41
2018-08-20T07:52:09.580Z,1004.43
2018-08-20T07:53:09.568Z,1004.39
2018-08-20T07:54:09.564Z,1004.41
2018-08-20T07:55:09.559Z,1004.41
2018-08-20T07:56:09.556Z,1004.45
2018-08-20T07:57:09.563Z,1004.40
2018-08-20T07:58:09.549Z,1004.39
2018-08-20T07:59:09.544Z,1004.44
2018-08-20T08:00:09.540Z,1004.46
2018-08-20T08:01:09.537Z,1004.46
2018-08-20T08:02:09.533Z,1004.52
2018-08-20T08:03:09.528Z,1004.51
2018-08-20T08:04:09.526Z,1004.55
2018-08-20T08:05:09.521Z,1004.54
2018-08-20T08:06:09.517Z,1004.50
2018-08-20T08:07:09.513Z,1004.53
2018-08-20T08:08:09.509Z,1004.51
2018-08-20T08:09:09.506Z,1004.56
2018-08-20T08:10:09.503Z,1004.59
2018-08-20T08:11:09.497Z,1004.62
2018-08-20T08:12:09.493Z,1004.59
2018-08-20T08:13:09.490Z,1004.58
2018-08-20T08:14:09.496Z,1004.56
2018-08-20T08:15:09.482Z,1004.65
2018-08-20T08:16:09.478Z,1004.64
2018-08-20T08:17:09.474Z,1004.66
2018-08-20T08:18:09.470Z,1004.61
2018-08-20T08:19:09.465Z,1004.61
2018-08-20T08:20:09.463Z,1004.61
2018-08-20T08:21:09.501Z,1004.56
2018-08-20T08:22:09.455Z,1004.58
2018-08-20T08:23:09.450Z,1004.58
2018-08-20T08:24:09.447Z,1004.58
2018-08-20T08:25:09.444Z,1004.61
2018-08-20T08:26:09.451Z,1004.63
2018-08-20T08:27:09.435Z,1004.64
2018-08-20T08:28:09.432Z,1004.62
2018-08-20T08:29:09.434Z,1004.67
2018-08-20T08:30:09.425Z,1004.63
2018-08-20T08:31:09.421Z,1004.65
2018-08-20T08:32:09.420Z,1004.61
2018-08-20T08:33:09.415Z,1004.60
2018-08-20T08:34:09.411Z,1004.62
2018-08-20T08:35:09.407Z,1004.61
2018-08-20T08:36:09.407Z,1004.62
2018-08-20T08:37:09.406Z,1004.65
2018-08-20T08:38:09.453Z,1004.64
2018-08-20T08:39:09.393Z,1004.62
2018-08-20T08:40:09.390Z,1004.61
2018-08-20T08:41:09.387Z,1004.61
2018-08-20T08:42:09.386Z,1004.65
2018-08-20T08:43:09.380Z,1004.62
2018-08-20T08:44:09.377Z,1004.63
2018-08-20T08:45:09.374Z,1004.65
2018-08-20T08:46:09.371Z,1004.64
2018-08-20T08:47:09.368Z,1004.62
2018-08-20T08:48:09.365Z,1004.63
2018-08-20T08:49:09.365Z,1004.62
2018-08-20T08:50:09.359Z,1004.64
2018-08-20T08:51:09.356Z,1004.64
2018-08-20T08:52:09.353Z,1004.69
2018-08-20T08:53:09.350Z,1004.70
2018-08-20T08:54:09.347Z,1004.69
2018-08-20T08:55:09.350Z,1004.69
2018-08-20T08:56:09.344Z,1004.74
2018-08-20T08:57:09.338Z,1004.73
2018-08-20T08:58:09.335Z,1004.71
2018-08-20T08:59:09.333Z,1004.73
2018-08-20T09:00:09.328Z,1004.71
2018-08-20T09:01:09.345Z,1004.70
2018-08-20T09:02:09.323Z,1004.71
2018-08-20T09:03:09.320Z,1004.71
2018-08-20T09:04:09.318Z,1004.73
2018-08-20T09:05:09.314Z,1004.73
2018-08-20T09:06:09.311Z,1004.73
2018-08-20T09:07:09.308Z,1004.75
2018-08-20T09:08:09.305Z,1004.77
2018-08-20T09:09:09.302Z,1004.75
2018-08-20T09:10:09.299Z,1004.78
2018-08-20T09:11:09.295Z,1004.73
2018-08-20T09:12:09.292Z,1004.78
2018-08-20T09:13:09.291Z,1004.73
2018-08-20T09:14:09.287Z,1004.77
2018-08-20T09:15:09.287Z,1004.76
2018-08-20T09:16:09.280Z,1004.80
2018-08-20T09:17:09.277Z,1004.81
2018-08-20T09:18:09.278Z,1004.82
2018-08-20T09:19:09.270Z,1004.87
2018-08-20T09:20:09.267Z,1004.82
2018-08-20T09:21:09.266Z,1004.81
2018-08-20T09:22:09.262Z,1004.82
2018-08-20T09:23:09.258Z,1004.84
2018-08-20T09:24:09.256Z,1004.90
2018-08-20T09:25:09.252Z,1004.90
2018-08-20T09:26:09.249Z,1004.93
2018-08-20T09:27:09.245Z,1004.93
2018-08-20T09:28:09.242Z,1004.92
2018-08-20T09:29:09.239Z,1004.93
2018-08-20T09:30:09.236Z,1004.94
2018-08-20T09:31:09.233Z,1004.94
2018-08-20T09:32:09.231Z,1004.97
2018-08-20T09:33:09.226Z,1004.92
2018-08-20T09:34:09.234Z,1004.94
2018-08-20T09:35:09.219Z,1004.95
2018-08-20T09:36:09.216Z,1004.95
2018-08-20T09:37:09.213Z,1004.96
2018-08-20T09:38:09.214Z,1004.95
2018-08-20T09:39:09.206Z,1004.92
2018-08-20T09:40:09.204Z,1004.95
2018-08-20T09:41:09.200Z,1004.91
2018-08-20T09:42:09.197Z,1004.90
2018-08-20T09:43:09.237Z,1004.90
2018-08-20T09:44:09.190Z,1004.88
2018-08-20T09:45:09.193Z,1004.89
2018-08-20T09:46:09.184Z,1004.92
2018-08-20T09:47:09.181Z,1004.89
2018-08-20T09:48:09.178Z,1004.87
2018-08-20T09:49:09.176Z,1004.85
2018-08-20T09:50:09.173Z,1004.89
2018-08-20T09:51:09.171Z,1004.83
2018-08-20T09:52:09.166Z,1004.87
2018-08-20T09:53:09.163Z,1004.86
2018-08-20T09:54:09.160Z,1004.86
2018-08-20T09:55:09.158Z,1004.90
2018-08-20T09:56:09.153Z,1004.94
2018-08-20T09:57:09.151Z,1004.95
2018-08-20T09:58:09.148Z,1004.97
2018-08-20T09:59:09.151Z,1004.96
2018-08-20T10:00:09.142Z,1004.94
2018-08-20T10:01:09.139Z,1004.95
2018-08-20T10:02:09.135Z,1004.95
2018-08-20T10:03:09.131Z,1004.97
2018-08-20T10:04:09.129Z,1004.95
2018-08-20T10:05:09.126Z,1004.96
2018-08-20T10:06:09.123Z,1004.95
2018-08-20T10:07:09.121Z,1004.93
2018-08-20T10:08:09.116Z,1004.97
2018-08-20T10:09:09.114Z,1004.95
2018-08-20T10:10:09.111Z,1004.97
2018-08-20T10:11:09.106Z,1004.99
2018-08-20T10:12:09.103Z,1004.98
2018-08-20T10:13:09.104Z,1005.00
2018-08-20T10:14:09.098Z,1005.02
2018-08-20T10:15:09.093Z,1005.02
2018-08-20T10:16:09.089Z,1004.98
2018-08-20T10:17:09.091Z,1005.03
2018-08-20T10:18:09.083Z,1004.98
2018-08-20T10:19:09.079Z,1005.00
2018-08-20T10:20:09.076Z,1005.02
2018-08-20T10:21:09.076Z,1004.97
2018-08-20T10:22:09.074Z,1005.00
2018-08-20T10:23:09.064Z,1004.99
2018-08-20T10:24:09.063Z,1004.98
2018-08-20T10:25:09.058Z,1005.06
2018-08-20T10:26:09.054Z,1005.03
2018-08-20T10:27:09.049Z,1005.04
2018-08-20T10:28:09.046Z,1005.02
2018-08-20T10:29:09.043Z,1004.99
2018-08-20T10:30:09.042Z,1005.02
2018-08-20T10:31:09.035Z,1005.01
2018-08-20T10:32:09.116Z,1005.02
2018-08-20T10:33:09.028Z,1005.04
2018-08-20T10:34:09.025Z,1005.00
2018-08-20T10:35:09.020Z,1005.01
2018-08-20T10:36:09.017Z,1005.02
2018-08-20T10:37:09.014Z,1005.02
2018-08-20T10:38:09.011Z,1005.00
2018-08-20T10:39:09.008Z,1005.04
2018-08-20T10:40:09.006Z,1005.03
2018-08-20T10:41:09.000Z,1005.04
2018-08-20T10:42:08.997Z,1005.04
2018-08-20T10:43:08.994Z,1005.06
2018-08-20T10:44:08.991Z,1005.07
2018-08-20T10:45:08.987Z,1005.07
2018-08-20T10:46:08.985Z,1005.05
2018-08-20T10:47:08.980Z,1005.08
2018-08-20T10:48:08.977Z,1005.07
2018-08-20T10:49:08.975Z,1005.02
2018-08-20T10:50:09.054Z,1005.06
2018-08-20T10:51:08.967Z,1005.07
2018-08-20T10:52:08.964Z,1005.06
2018-08-20T10:53:08.964Z,1005.08
2018-08-20T10:54:08.958Z,1005.07
2018-08-20T10:55:08.954Z,1005.09
2018-08-20T10:56:08.951Z,1005.09
2018-08-20T10:57:08.949Z,1005.11
2018-08-20T10:58:08.945Z,1005.13
2018-08-20T10:59:08.942Z,1005.10
2018-08-20T11:00:08.939Z,1005.11
2018-08-20T11:01:08.936Z,1005.07
2018-08-20T11:02:09.037Z,1005.13
2018-08-20T11:03:08.933Z,1005.12
2018-08-20T11:04:08.927Z,1005.08
2018-08-20T11:05:08.924Z,1005.05
2018-08-20T11:06:08.922Z,1005.10
2018-08-20T11:07:08.950Z,1005.06
2018-08-20T11:08:08.916Z,1005.08
2018-08-20T11:09:08.913Z,1005.04
2018-08-20T11:10:08.984Z,1005.09
2018-08-20T11:11:08.908Z,1005.07
2018-08-20T11:12:08.905Z,1005.09
2018-08-20T11:13:08.903Z,1005.09
2018-08-20T11:14:08.904Z,1005.10
2018-08-20T11:15:08.898Z,1005.11
2018-08-20T11:16:08.896Z,1005.17
2018-08-20T11:17:08.894Z,1005.18
2018-08-20T11:18:08.893Z,1005.15
2018-08-20T11:19:08.890Z,1005.12
2018-08-20T11:20:08.888Z,1005.12
2018-08-20T11:21:08.887Z,1005.12
2018-08-20T11:22:08.886Z,1005.10
2018-08-20T11:23:08.883Z,1005.11
2018-08-20T11:24:08.882Z,1005.07
2018-08-20T11:25:08.881Z,1005.08
2018-08-20T11:26:08.880Z,1005.12
2018-08-20T11:27:08.879Z,1005.07
2018-08-20T11:28:08.877Z,1005.07
2018-08-20T11:29:08.876Z,1005.10
2018-08-20T11:30:08.887Z,1005.12
2018-08-20T11:31:08.878Z,1005.10
2018-08-20T11:32:08.874Z,1005.12
2018-08-20T11:33:08.876Z,1005.10
2018-08-20T11:34:08.872Z,1005.06
2018-08-20T11:35:08.873Z,1005.03
2018-08-20T11:36:08.871Z,1005.02
2018-08-20T11:37:08.871Z,1004.98
2018-08-20T11:38:08.872Z,1005.03
2018-08-20T11:39:08.872Z,1005.04
2018-08-20T11:40:08.871Z,1004.98
2018-08-20T11:41:08.875Z,1005.02
2018-08-20T11:42:08.872Z,1004.99
2018-08-20T11:43:08.877Z,1005.04
2018-08-20T11:44:08.873Z,1005.02
2018-08-20T11:45:08.877Z,1004.99
2018-08-20T11:46:08.874Z,1005.04
2018-08-20T11:47:08.878Z,1005.01
2018-08-20T11:48:08.878Z,1004.99
2018-08-20T11:49:08.897Z,1004.99
2018-08-20T11:50:08.878Z,1005.00
2018-08-20T11:51:08.878Z,1004.98
2018-08-20T11:52:08.884Z,1005.01
2018-08-20T11:53:08.883Z,1005.00
2018-08-20T11:54:08.882Z,1004.97
2018-08-20T11:55:08.883Z,1005.01
2018-08-20T11:56:08.885Z,1004.99
2018-08-20T11:57:08.887Z,1004.96
2018-08-20T11:58:08.889Z,1004.97
2018-08-20T11:59:08.939Z,1004.96
2018-08-20T12:00:08.893Z,1004.94
2018-08-20T12:01:08.896Z,1004.97
2018-08-20T12:02:08.901Z,1004.95
2018-08-20T12:03:08.904Z,1005.00
2018-08-20T12:04:08.904Z,1005.02
2018-08-20T12:05:08.907Z,1004.97